Time;durP1;ratioP1;P1;durP2;ratioP2;P2;SDS_P1;SDS_P2;PMS_P1;PMS_P2;Temp;Humidity;BMP_temperature;BMP_pressure;BME280_temperature;BME280_humidity;BME280_pressure;Samples;Min_cycle;Max_cycle;Signal;HPM_P1;HPM_P2
2022/04/16 05:00:22;;;;;;;5.20;2.55;;;8.70;99.90;;;;;;5886429;23;20025;31
2022/04/16 05:02:50;;;;;;;4.40;2.70;;;8.80;99.90;;;;;;4860054;29;20034;-88
2022/04/16 05:05:18;;;;;;;4.75;2.92;;;8.80;99.90;;;;;;4848177;29;20131;-88
2022/04/16 05:07:46;;;;;;;4.90;2.72;;;8.80;99.90;;;;;;4847059;29;20137;-86
2022/04/16 05:10:13;;;;;;;5.75;2.70;;;8.80;99.90;;;;;;4846350;29;20060;-86
2022/04/16 05:12:40;;;;;;;4.50;2.38;;;8.80;99.90;;;;;;4845295;29;20054;-85
2022/04/16 05:15:09;;;;;;;4.50;2.50;;;8.60;99.90;;;;;;4846459;29;20140;-86
2022/04/16 05:17:38;;;;;;;4.88;2.38;;;8.50;99.90;;;;;;4844426;29;20424;-85
2022/04/16 05:20:09;;;;;;;4.00;2.20;;;8.80;99.90;;;;;;4842928;29;20038;-88
2022/04/16 05:22:36;;;;;;;4.50;2.40;;;8.70;99.90;;;;;;4838245;29;20050;-90
2022/04/16 05:25:04;;;;;;;3.38;2.00;;;8.90;99.90;;;;;;4844636;29;20060;-89
2022/04/16 05:27:34;;;;;;;4.50;2.53;;;8.90;99.90;;;;;;4842478;29;20058;-91
2022/04/16 05:30:13;;;;;;;4.25;2.40;;;8.90;99.90;;;;;;4835657;29;20551;-87
2022/04/16 05:32:42;;;;;;;4.45;2.58;;;8.60;99.90;;;;;;4845105;29;20057;-86
2022/04/16 05:35:10;;;;;;;4.15;2.40;;;8.50;99.90;;;;;;4846292;29;20057;-89
2022/04/16 05:37:38;;;;;;;4.85;2.40;;;8.70;99.90;;;;;;4846441;29;20056;-81
2022/04/16 05:40:07;;;;;;;4.35;2.50;;;8.80;99.90;;;;;;4844462;29;20050;-91
2022/04/16 05:42:40;;;;;;;4.05;2.28;;;8.90;99.90;;;;;;4843566;29;20140;-91
2022/04/16 05:45:16;;;;;;;4.65;2.40;;;8.90;99.90;;;;;;4847354;29;20060;-92
2022/04/16 05:47:45;;;;;;;4.15;2.63;;;9.10;99.90;;;;;;4849060;29;20118;-92
2022/04/16 05:50:14;;;;;;;6.20;2.78;;;9.20;99.90;;;;;;4842672;29;20133;-92
2022/04/16 05:52:43;;;;;;;5.07;3.17;;;9.10;99.90;;;;;;4856550;29;20060;-91
2022/04/16 05:55:11;;;;;;;4.78;2.80;;;9.10;99.90;;;;;;4848503;29;20564;-90
2022/04/16 05:57:40;;;;;;;4.80;2.80;;;9.30;99.90;;;;;;4847986;29;20427;-92
2022/04/16 06:00:12;;;;;;;4.20;2.38;;;9.40;99.90;;;;;;4852336;29;20053;-93
2022/04/16 06:02:40;;;;;;;4.90;2.88;;;9.40;99.90;;;;;;4842979;29;20087;-91
2022/04/16 06:05:10;;;;;;;4.68;2.55;;;9.30;99.90;;;;;;4848256;29;20074;-93
2022/04/16 06:07:37;;;;;;;4.60;2.80;;;9.10;99.90;;;;;;4840408;29;20113;-91
2022/04/16 06:10:06;;;;;;;5.40;3.10;;;9.20;99.90;;;;;;4846235;29;20076;-91
2022/04/16 06:12:34;;;;;;;4.40;2.60;;;9.20;99.90;;;;;;4848937;29;20094;-91
2022/04/16 06:15:01;;;;;;;4.47;2.60;;;9.10;99.90;;;;;;4845994;29;20056;-93
2022/04/16 06:25:16;;;;;;;5.68;2.70;;;9.50;99.90;;;;;;5513135;23;20053;-87
2022/04/16 06:27:43;;;;;;;5.60;2.85;;;9.50;99.90;;;;;;4866183;29;20053;-90
2022/04/16 06:30:12;;;;;;;4.43;2.53;;;9.40;99.90;;;;;;4876275;29;20160;-87
2022/04/16 06:32:39;;;;;;;5.03;3.30;;;9.40;99.90;;;;;;4882791;29;20060;-90
2022/04/16 06:35:07;;;;;;;4.47;2.85;;;9.30;99.90;;;;;;4883441;29;20384;-92
2022/04/16 06:37:35;;;;;;;5.43;3.30;;;9.40;99.90;;;;;;4885497;29;20053;-92
2022/04/16 06:40:05;;;;;;;5.60;3.38;;;9.50;99.90;;;;;;4870976;29;20156;-92
2022/04/16 06:42:35;;;;;;;5.60;3.30;;;9.40;99.90;;;;;;4870239;29;20086;-90
2022/04/16 06:45:02;;;;;;;5.15;3.22;;;9.40;99.90;;;;;;4890331;29;20061;-91
2022/04/16 06:47:30;;;;;;;5.13;2.90;;;9.60;99.90;;;;;;4901172;29;20097;-90
2022/04/16 06:49:57;;;;;;;5.68;3.13;;;9.70;99.90;;;;;;4900205;29;20522;-91
2022/04/16 06:52:27;;;;;;;5.15;2.92;;;9.80;99.90;;;;;;4971607;23;20076;-93
2022/04/16 06:54:56;;;;;;;6.07;3.50;;;9.80;99.90;;;;;;4859953;29;20057;-93
2022/04/16 06:57:23;;;;;;;5.60;3.17;;;9.90;99.90;;;;;;4869528;29;20522;-92
2022/04/16 06:59:52;;;;;;;5.60;3.53;;;10.10;99.90;;;;;;4876834;29;20053;-95
2022/04/16 07:02:20;;;;;;;5.38;3.20;;;10.10;99.90;;;;;;4882811;29;20034;-90
2022/04/16 07:04:48;;;;;;;5.15;2.90;;;10.10;99.90;;;;;;4881342;29;20061;-93
2022/04/16 07:07:16;;;;;;;4.78;2.90;;;10.20;99.90;;;;;;4881073;29;20033;-92
2022/04/16 07:09:43;;;;;;;6.70;3.58;;;10.20;99.90;;;;;;4864641;29;20136;-94
2022/04/16 07:12:12;;;;;;;6.55;3.85;;;10.10;99.90;;;;;;4863081;29;20120;-92
2022/04/16 07:14:40;;;;;;;6.75;3.40;;;10.00;99.90;;;;;;4861915;29;20057;-90
2022/04/16 07:17:09;;;;;;;5.78;3.83;;;10.00;99.90;;;;;;4860120;29;20049;-90
2022/04/16 07:19:38;;;;;;;6.25;3.25;;;10.10;99.90;;;;;;4848909;29;20152;-90
2022/04/16 07:22:06;;;;;;;7.65;4.07;;;10.20;99.90;;;;;;4870167;29;20061;-90
2022/04/16 07:24:37;;;;;;;5.90;3.97;;;10.00;99.90;;;;;;4880484;29;20060;-87
2022/04/16 07:27:06;;;;;;;8.13;4.38;;;10.10;99.90;;;;;;4877107;29;20392;-86
2022/04/16 07:29:33;;;;;;;7.05;4.18;;;10.20;99.90;;;;;;4872660;29;20508;-86
2022/04/16 07:32:00;;;;;;;7.30;4.45;;;10.00;99.90;;;;;;4867433;29;20105;-86
2022/04/16 07:34:29;;;;;;;7.70;4.38;;;10.20;99.90;;;;;;4865968;29;20412;-87
2022/04/16 07:36:56;;;;;;;6.55;4.18;;;9.90;99.90;;;;;;4861831;29;20053;-85
2022/04/16 07:39:23;;;;;;;7.55;4.50;;;10.20;99.90;;;;;;4860781;29;20052;-87
2022/04/16 07:41:51;;;;;;;6.70;4.28;;;10.30;99.90;;;;;;4860982;29;20054;-91
2022/04/16 07:44:18;;;;;;;6.80;4.40;;;10.30;99.70;;;;;;4861426;29;20064;-83
2022/04/16 07:46:46;;;;;;;6.85;4.20;;;10.40;99.90;;;;;;4856852;29;20057;-85
2022/04/16 07:49:13;;;;;;;8.55;5.07;;;10.50;99.40;;;;;;4860635;29;20060;-84
2022/04/16 07:51:43;;;;;;;7.80;5.20;;;10.40;99.50;;;;;;4858931;29;20057;-83
2022/04/16 07:54:10;;;;;;;7.63;4.88;;;10.30;99.50;;;;;;4846192;29;20563;-83
2022/04/16 07:56:37;;;;;;;8.32;4.93;;;10.40;99.40;;;;;;4860300;29;20045;-81
2022/04/16 07:59:04;;;;;;;7.30;4.88;;;10.40;99.60;;;;;;4860446;29;20054;-82
2022/04/16 08:01:31;;;;;;;8.32;5.45;;;10.40;99.30;;;;;;4860432;29;20045;-81
2022/04/16 08:03:58;;;;;;;7.90;4.95;;;10.40;99.60;;;;;;4861046;29;20049;-89
2022/04/16 08:06:26;;;;;;;7.57;5.13;;;10.20;99.60;;;;;;4858404;29;20084;-91
2022/04/16 08:09:00;;;;;;;7.53;4.82;;;10.30;99.40;;;;;;4862378;29;20064;-79
2022/04/16 08:11:29;;;;;;;8.15;4.80;;;10.30;99.40;;;;;;4861782;29;20050;-85
2022/04/16 08:13:56;;;;;;;7.28;4.95;;;10.30;99.60;;;;;;4859931;29;20061;-86
2022/04/16 08:16:23;;;;;;;8.90;5.65;;;10.40;99.80;;;;;;4859956;29;20049;-86
2022/04/16 08:18:50;;;;;;;8.95;5.40;;;10.50;99.30;;;;;;4861475;29;20114;-86
2022/04/16 08:21:17;;;;;;;8.55;5.47;;;10.40;99.40;;;;;;4861492;29;20064;-87
2022/04/16 08:23:55;;;;;;;7.88;5.38;;;10.40;99.50;;;;;;4861628;29;20463;-86
2022/04/16 08:26:24;;;;;;;9.38;5.82;;;10.40;99.30;;;;;;4843141;29;20065;-86
2022/04/16 08:28:52;;;;;;;9.23;5.65;;;10.50;99.20;;;;;;4843156;29;20054;-84
2022/04/16 08:31:19;;;;;;;8.25;5.45;;;10.40;99.40;;;;;;4842694;29;20054;-86
2022/04/16 08:33:47;;;;;;;10.27;5.65;;;10.50;99.40;;;;;;4844322;29;20148;-86
2022/04/16 08:36:15;;;;;;;8.48;5.45;;;10.60;99.60;;;;;;4859682;29;20385;-87
2022/04/16 08:38:42;;;;;;;7.68;5.07;;;10.50;99.30;;;;;;4863197;29;20092;-90
2022/04/16 08:41:11;;;;;;;9.00;5.18;;;10.50;99.50;;;;;;4864470;29;20046;-91
2022/04/16 08:43:41;;;;;;;9.18;5.75;;;10.50;99.20;;;;;;4861335;29;20046;-89
2022/04/16 08:46:09;;;;;;;8.52;5.43;;;10.50;99.30;;;;;;4863607;29;20049;-90
2022/04/16 08:48:38;;;;;;;7.60;5.45;;;10.50;99.70;;;;;;4859897;29;20144;-89
2022/04/16 08:51:05;;;;;;;7.45;4.97;;;10.40;99.30;;;;;;4866195;29;20140;-89
2022/04/16 08:53:32;;;;;;;7.53;5.30;;;10.40;99.30;;;;;;4880181;29;20064;-90
2022/04/16 08:55:59;;;;;;;9.73;5.68;;;10.40;99.30;;;;;;4878879;29;20073;-87
2022/04/16 08:58:26;;;;;;;9.18;5.55;;;10.50;99.20;;;;;;4866889;29;20049;-89
2022/04/16 09:00:55;;;;;;;7.28;5.18;;;10.60;99.00;;;;;;4879306;29;20097;-88
2022/04/16 09:03:22;;;;;;;9.57;5.50;;;10.70;99.10;;;;;;4890198;29;20048;-91
2022/04/16 09:05:55;;;;;;;8.40;5.47;;;10.80;99.10;;;;;;4884493;29;20067;-92
2022/04/16 09:08:29;;;;;;;7.90;5.10;;;10.90;98.50;;;;;;4902144;29;20037;-92
2022/04/16 09:11:06;;;;;;;7.97;5.25;;;11.10;98.40;;;;;;4896865;29;20053;-84
2022/04/16 09:13:34;;;;;;;7.82;4.97;;;11.10;98.20;;;;;;4885553;29;20049;-86
2022/04/16 09:16:06;;;;;;;7.45;5.07;;;11.10;98.10;;;;;;4888335;29;20063;-85
2022/04/16 09:18:46;;;;;;;7.78;4.68;;;11.00;98.40;;;;;;4890129;29;20057;-85
2022/04/16 09:21:14;;;;;;;8.32;4.88;;;11.10;98.10;;;;;;4886862;29;20049;-83
2022/04/16 09:23:52;;;;;;;7.72;4.80;;;11.10;97.90;;;;;;4884036;29;20057;-85
2022/04/16 09:26:27;;;;;;;7.75;5.38;;;11.20;97.90;;;;;;4882229;29;20056;-85
2022/04/16 09:28:55;;;;;;;8.18;4.72;;;11.10;98.00;;;;;;4882010;29;20057;-84
2022/04/16 09:31:29;;;;;;;7.00;4.60;;;11.20;97.60;;;;;;4881895;29;20142;-85
2022/04/16 09:33:56;;;;;;;6.93;4.30;;;11.30;97.50;;;;;;4881998;29;20060;-85
2022/04/16 09:36:28;;;;;;;6.50;4.53;;;11.40;96.80;;;;;;4865435;29;20554;-86
2022/04/16 09:39:02;;;;;;;6.50;4.53;;;11.40;96.60;;;;;;4881833;29;20128;-84
2022/04/16 09:41:33;;;;;;;;;;;11.60;96.90;;;;;;4865835;29;20049;-85
2022/04/16 09:44:01;;;;;;;6.45;4.28;;;11.50;96.10;;;;;;4882468;29;19924;-86
2022/04/16 09:46:31;;;;;;;6.30;3.83;;;11.60;96.20;;;;;;4881779;29;20064;-86
2022/04/16 09:49:03;;;;;;;6.32;3.90;;;11.80;95.70;;;;;;4881772;29;20057;-84
2022/04/16 09:51:35;;;;;;;6.25;4.03;;;11.90;95.30;;;;;;4863674;29;20054;-84
2022/04/16 09:54:06;;;;;;;7.05;4.00;;;11.90;95.70;;;;;;4881638;29;20049;-84
2022/04/16 09:56:35;;;;;;;6.88;4.03;;;12.00;95.70;;;;;;4881313;29;20057;-84
2022/04/16 09:59:04;;;;;;;7.50;4.68;;;11.70;96.20;;;;;;4881911;29;20049;-85
2022/04/16 10:01:35;;;;;;;6.25;3.78;;;11.50;96.70;;;;;;4881655;29;20049;-85
2022/04/16 10:04:02;;;;;;;7.40;4.57;;;11.70;96.60;;;;;;4881533;29;20053;-85
2022/04/16 10:06:30;;;;;;;6.65;4.28;;;11.70;95.90;;;;;;4881500;29;20415;-85
2022/04/16 10:09:00;;;;;;;7.30;3.97;;;11.50;96.20;;;;;;4881379;29;20495;-84
2022/04/16 10:12:59;;;;;;;6.05;3.65;;;11.60;96.40;;;;;;4881071;29;20242;-85
2022/04/16 10:14:39;;;;;;;6.45;4.22;;;11.70;95.90;;;;;;4881435;29;20049;-84
2022/04/16 10:17:24;;;;;;;6.07;3.83;;;11.70;96.20;;;;;;4881475;29;20132;-85
2022/04/16 10:19:54;;;;;;;6.57;4.35;;;11.60;96.10;;;;;;4894684;29;20045;-86
2022/04/16 10:22:25;;;;;;;6.70;4.30;;;11.40;96.30;;;;;;4892072;29;20080;-86
2022/04/16 10:24:57;;;;;;;6.63;4.03;;;11.40;96.50;;;;;;4887493;29;20048;-84
2022/04/16 10:27:27;;;;;;;6.78;4.15;;;11.40;96.70;;;;;;4887565;29;20056;-84
2022/04/16 10:29:55;;;;;;;7.45;4.85;;;11.50;96.90;;;;;;4887247;29;20523;-86
2022/04/16 10:32:23;;;;;;;6.90;4.53;;;11.60;97.50;;;;;;4881284;29;20053;-85
2022/04/16 10:34:50;;;;;;;6.78;4.10;;;11.70;97.00;;;;;;4880462;29;20057;-84
2022/04/16 10:37:24;;;;;;;6.32;4.28;;;11.80;96.50;;;;;;4879831;29;20045;-85
2022/04/16 10:39:55;;;;;;;7.50;4.53;;;12.00;95.70;;;;;;4874221;29;20052;-82
2022/04/16 10:42:33;;;;;;;7.15;4.00;;;12.00;95.30;;;;;;4876644;29;20057;-84
2022/04/16 10:45:11;;;;;;;6.30;3.80;;;12.10;95.30;;;;;;4879896;29;20124;-84
2022/04/16 10:47:41;;;;;;;6.10;3.47;;;12.30;94.10;;;;;;4881173;29;20045;-88
2022/04/16 10:50:17;;;;;;;6.32;3.83;;;12.50;93.10;;;;;;4864954;29;20515;-87
2022/04/16 10:52:56;;;;;;;5.15;3.28;;;12.30;93.30;;;;;;4880925;29;20053;-87
2022/04/16 10:55:30;;;;;;;8.32;4.35;;;12.30;93.30;;;;;;4848837;29;20479;-88
2022/04/16 10:58:03;;;;;;;5.93;3.50;;;12.60;93.70;;;;;;4850601;29;20048;-88
2022/04/16 11:00:40;;;;;;;6.22;3.80;;;12.50;92.90;;;;;;4881761;29;20060;-89
2022/04/16 11:03:30;;;;;;;5.13;3.42;;;12.50;92.90;;;;;;4881707;29;20045;-91
2022/04/16 11:06:02;;;;;;;5.53;3.10;;;12.20;92.80;;;;;;4866814;29;20064;-90
2022/04/16 11:08:30;;;;;;;4.88;3.03;;;12.40;92.30;;;;;;4892402;29;20116;-87
2022/04/16 11:10:59;;;;;;;5.13;3.25;;;12.40;92.20;;;;;;4903373;29;20052;-88
2022/04/16 11:13:27;;;;;;;5.63;3.45;;;12.20;93.30;;;;;;4902556;29;20057;-90
2022/04/16 11:15:57;;;;;;;6.25;4.00;;;12.50;93.40;;;;;;4899452;29;20052;-88
2022/04/16 11:18:28;;;;;;;6.07;3.80;;;12.20;93.30;;;;;;4899416;29;20056;-87
2022/04/16 11:20:55;;;;;;;6.18;3.78;;;12.20;93.00;;;;;;4884532;29;20088;-90
2022/04/16 11:23:26;;;;;;;6.18;3.83;;;12.00;93.20;;;;;;4887355;29;20060;-87
2022/04/16 11:34:18;;;;;;;6.80;4.63;;;12.20;92.60;;;;;;4895191;29;20056;-91
2022/04/16 11:36:50;;;;;;;5.97;3.70;;;12.30;92.80;;;;;;4883098;29;20061;-83
2022/04/16 11:39:21;;;;;;;5.75;3.40;;;12.50;91.80;;;;;;4872980;29;20451;-89
2022/04/16 11:41:54;;;;;;;5.57;3.42;;;12.50;90.90;;;;;;4886077;29;20144;-85
2022/04/16 11:44:33;;;;;;;5.63;3.50;;;12.70;90.60;;;;;;4876425;29;20045;-87
2022/04/16 11:47:02;;;;;;;5.25;3.10;;;12.80;90.40;;;;;;4878877;29;20060;-88
2022/04/16 11:49:32;;;;;;;4.85;2.90;;;12.70;90.40;;;;;;4879602;29;20057;-91
2022/04/16 11:51:59;;;;;;;4.43;2.55;;;12.90;90.30;;;;;;4877186;29;20067;-91
2022/04/16 11:54:32;;;;;;;4.90;3.10;;;13.10;88.50;;;;;;4863225;29;20056;-90
2022/04/16 11:57:00;;;;;;;5.38;3.00;;;12.90;89.50;;;;;;4878812;29;20057;-88
2022/04/16 11:59:29;;;;;;;5.22;3.25;;;13.00;88.30;;;;;;4864485;29;20472;-88
2022/04/16 12:02:04;;;;;;;4.88;3.05;;;12.90;88.80;;;;;;4845174;29;20568;-87
2022/04/16 12:04:40;;;;;;;6.25;3.50;;;12.70;89.30;;;;;;4862728;29;20057;-92
2022/04/16 12:07:16;;;;;;;5.80;3.22;;;12.60;90.00;;;;;;4889038;29;20057;-92
2022/04/16 12:09:51;;;;;;;5.18;3.00;;;12.60;88.40;;;;;;4888403;29;20076;-93
2022/04/16 12:12:23;;;;;;;5.20;3.20;;;12.60;88.70;;;;;;4885979;29;20044;-90
2022/04/16 12:14:54;;;;;;;5.50;3.30;;;12.60;89.40;;;;;;4883348;29;20151;-92
2022/04/16 12:17:26;;;;;;;5.35;3.10;;;12.50;90.00;;;;;;4884564;29;20105;-92
2022/04/16 12:20:14;;;;;;;6.03;3.33;;;12.70;89.40;;;;;;4881673;29;20053;-93
2022/04/16 12:22:50;;;;;;;5.63;3.42;;;12.80;89.50;;;;;;4883536;29;20161;-90
2022/04/16 12:25:20;;;;;;;5.20;2.95;;;13.00;89.20;;;;;;4865726;29;20140;-92
2022/04/16 12:27:49;;;;;;;7.18;3.78;;;13.00;88.70;;;;;;4870510;29;20489;-92
2022/04/16 12:30:19;;;;;;;7.47;4.80;;;13.30;88.60;;;;;;4884016;29;20049;-90
2022/04/16 12:32:59;;;;;;;8.52;4.32;;;13.30;85.50;;;;;;4888711;29;20080;-93
2022/04/16 12:35:30;;;;;;;5.30;3.40;;;13.40;85.80;;;;;;4861013;29;20060;-91
2022/04/16 12:38:01;;;;;;;4.82;2.88;;;13.40;84.30;;;;;;4870492;29;20061;-91
2022/04/16 12:40:35;;;;;;;5.10;3.33;;;13.40;83.90;;;;;;4882418;29;20067;-92
2022/04/16 12:43:04;;;;;;;6.50;3.80;;;13.40;84.80;;;;;;4880544;29;20049;-92
2022/04/16 12:45:32;;;;;;;5.90;3.45;;;13.20;84.80;;;;;;4887086;29;20321;-92
2022/04/16 12:48:01;;;;;;;5.30;3.10;;;13.30;83.50;;;;;;4885650;29;20493;-93
2022/04/16 12:50:32;;;;;;;5.30;3.15;;;13.90;83.40;;;;;;4886324;29;20060;-91
2022/04/16 12:53:01;;;;;;;5.20;2.95;;;14.50;83.90;;;;;;4893808;29;20139;-92
2022/04/16 12:55:29;;;;;;;5.00;3.10;;;14.60;80.00;;;;;;4894991;29;20444;-93
2022/04/16 12:57:59;;;;;;;5.28;3.10;;;14.20;76.00;;;;;;4892595;29;20052;-90
2022/04/16 13:00:27;;;;;;;4.72;3.15;;;14.50;76.20;;;;;;4892141;29;20129;-92
2022/04/16 13:02:55;;;;;;;5.22;3.00;;;14.90;76.20;;;;;;4893587;29;20063;-91
2022/04/16 13:05:24;;;;;;;5.47;3.05;;;15.30;76.70;;;;;;4898651;29;20056;-88
2022/04/16 13:07:59;;;;;;;5.70;2.92;;;15.80;73.10;;;;;;4955623;23;20078;-90
2022/04/16 13:10:28;;;;;;;5.72;3.00;;;15.60;68.30;;;;;;4886896;29;20113;-91
2022/04/16 13:12:59;;;;;;;5.65;3.00;;;15.20;68.80;;;;;;4880527;29;20073;-92
2022/04/16 13:15:26;;;;;;;4.00;2.15;;;15.10;67.60;;;;;;4876411;29;20064;-93
2022/04/16 13:17:54;;;;;;;5.93;3.05;;;14.80;66.70;;;;;;4886299;29;20057;-93
2022/04/16 13:20:22;;;;;;;5.75;2.95;;;15.20;70.10;;;;;;4879064;29;20057;-90
2022/04/16 13:22:49;;;;;;;5.13;2.97;;;15.50;70.00;;;;;;4869740;29;20075;-92
2022/04/16 13:25:18;;;;;;;5.50;3.08;;;16.20;71.50;;;;;;4872307;29;20416;-91
2022/04/16 13:27:45;;;;;;;5.45;2.85;;;16.20;66.10;;;;;;4873576;29;20050;-89
2022/04/16 13:30:13;;;;;;;5.68;3.38;;;16.10;67.40;;;;;;4867141;29;20468;-92
2022/04/16 13:32:40;;;;;;;5.40;3.28;;;15.60;66.70;;;;;;4866247;29;20589;-92
2022/04/16 13:35:09;;;;;;;4.68;2.88;;;15.30;65.20;;;;;;4847062;29;20053;-90
2022/04/16 13:37:41;;;;;;;4.57;2.53;;;15.60;66.60;;;;;;4869869;29;20117;-91
2022/04/16 13:42:56;;;;;;;4.88;3.10;;;16.60;65.00;;;;;;4865834;29;20071;-90
2022/04/16 13:45:23;;;;;;;6.05;3.25;;;16.50;63.20;;;;;;4866729;29;20524;-89
2022/04/16 13:47:51;;;;;;;5.45;3.45;;;16.20;61.90;;;;;;4868350;29;20186;-85
2022/04/16 13:50:19;;;;;;;6.45;4.10;;;15.90;62.00;;;;;;4880659;29;20049;-87
2022/04/16 13:52:47;;;;;;;7.07;4.22;;;16.90;63.40;;;;;;4875659;29;20407;-86
2022/04/16 13:55:14;;;;;;;6.82;3.58;;;16.50;60.50;;;;;;4870180;29;20159;-84
2022/04/16 13:57:41;;;;;;;6.45;3.30;;;17.20;60.40;;;;;;4862132;29;20053;-86
2022/04/16 14:00:12;;;;;;;4.65;2.60;;;17.00;59.90;;;;;;4862553;29;20113;-87
2022/04/16 14:02:39;;;;;;;4.88;2.90;;;17.30;58.70;;;;;;4860625;29;20096;-85
2022/04/16 14:07:52;;;;;;;5.75;3.42;;;16.20;57.30;;;;;;4861165;29;20154;-85
2022/04/16 14:10:19;;;;;;;5.25;3.10;;;15.60;59.50;;;;;;4860604;29;20067;-85
2022/04/16 14:12:46;;;;;;;5.28;2.63;;;15.40;60.60;;;;;;4861122;29;20469;-83
2022/04/16 14:15:15;;;;;;;4.90;2.30;;;16.80;59.80;;;;;;4860074;29;20144;-89
2022/04/16 14:17:42;;;;;;;5.13;2.85;;;17.90;56.90;;;;;;4862152;29;20064;-85
2022/04/16 14:20:11;;;;;;;3.90;2.30;;;18.60;57.10;;;;;;4862207;29;20057;-85
2022/04/16 14:22:38;;;;;;;4.93;2.75;;;18.20;52.00;;;;;;4860828;29;20137;-84
2022/04/16 14:25:06;;;;;;;4.75;2.67;;;19.20;53.00;;;;;;4860645;29;20081;-84
2022/04/16 14:27:33;;;;;;;5.00;2.50;;;18.40;53.00;;;;;;4861944;29;20053;-83
2022/04/16 14:30:00;;;;;;;4.47;2.63;;;19.30;54.70;;;;;;4862852;29;20092;-81
2022/04/16 14:32:29;;;;;;;5.10;2.63;;;19.00;52.10;;;;;;4859380;29;20500;-84
2022/04/16 14:34:56;;;;;;;5.30;2.90;;;18.20;52.00;;;;;;4860357;29;20053;-87
2022/04/16 14:37:23;;;;;;;4.57;2.67;;;17.30;53.90;;;;;;4860396;29;20168;-86
2022/04/16 14:39:50;;;;;;;5.63;2.88;;;16.50;54.00;;;;;;4861106;29;20053;-84
2022/04/16 14:42:18;;;;;;;4.70;2.60;;;16.40;54.50;;;;;;4852246;29;20057;-85
2022/04/16 14:44:51;;;;;;;4.95;2.65;;;16.80;54.50;;;;;;4853580;29;20140;-86
2022/04/16 14:47:18;;;;;;;6.75;2.85;;;19.70;52.20;;;;;;4852812;29;20049;-86
2022/04/16 14:49:47;;;;;;;4.38;2.30;;;20.70;49.20;;;;;;4844635;29;20057;-86
2022/04/16 14:52:15;;;;;;;5.30;2.60;;;19.80;48.10;;;;;;4846343;29;20072;-88
2022/04/16 14:54:42;;;;;;;4.40;2.60;;;19.50;45.70;;;;;;4861296;29;20053;-78
2022/04/16 14:57:09;;;;;;;4.22;2.10;;;20.70;48.60;;;;;;4859778;29;20058;-79
2022/04/16 14:59:36;;;;;;;4.93;2.38;;;22.60;46.10;;;;;;4860399;29;20057;-75
2022/04/16 15:02:03;;;;;;;3.97;2.30;;;23.80;44.30;;;;;;4858165;29;20049;-78
2022/04/16 15:04:30;;;;;;;3.60;2.00;;;23.50;43.00;;;;;;4859085;29;20046;-76
2022/04/16 15:06:58;;;;;;;3.83;2.22;;;24.00;41.40;;;;;;4859364;29;20060;-77
2022/04/16 15:09:25;;;;;;;3.50;2.00;;;23.60;40.30;;;;;;4857814;29;20064;-77
2022/04/16 15:11:52;;;;;;;3.78;2.00;;;24.10;40.00;;;;;;4859429;29;20057;-78
2022/04/16 15:14:19;;;;;;;3.83;1.90;;;23.60;40.50;;;;;;4859373;29;20053;-78
2022/04/16 15:16:47;;;;;;;4.50;2.00;;;20.70;41.10;;;;;;4859015;29;20061;-77
2022/04/16 15:19:14;;;;;;;3.75;2.20;;;20.70;44.40;;;;;;4858160;29;20496;-80
2022/04/16 15:21:41;;;;;;;3.30;1.95;;;19.00;47.10;;;;;;4857263;29;20057;-78
2022/04/16 15:24:09;;;;;;;3.55;2.20;;;20.20;46.60;;;;;;4859034;29;20065;-78
2022/04/16 15:26:37;;;;;;;3.78;2.10;;;21.40;42.70;;;;;;4857912;29;20053;-79
2022/04/16 15:29:04;;;;;;;3.67;2.20;;;21.90;41.90;;;;;;4857937;29;20042;-77
2022/04/16 15:31:36;;;;;;;3.67;2.10;;;22.10;42.60;;;;;;4858815;29;20063;-78
2022/04/16 15:34:05;;;;;;;3.00;1.73;;;22.40;41.90;;;;;;4857986;29;20053;-78
2022/04/16 15:36:32;;;;;;;4.25;1.80;;;22.70;46.30;;;;;;4858754;29;20601;-76
2022/04/16 15:39:01;;;;;;;3.05;1.70;;;22.30;41.70;;;;;;4857875;29;20137;-79
2022/04/16 15:41:30;;;;;;;3.42;1.70;;;22.00;42.90;;;;;;4858822;29;20378;-76
2022/04/16 15:44:03;;;;;;;3.65;1.63;;;21.40;41.60;;;;;;4856819;29;20145;-77
2022/04/16 15:46:30;;;;;;;3.15;2.00;;;21.90;43.60;;;;;;4858406;29;20049;-78
2022/04/16 15:48:57;;;;;;;3.38;1.88;;;21.80;42.00;;;;;;4857286;29;20059;-78
2022/04/16 15:51:26;;;;;;;3.58;1.95;;;21.90;43.90;;;;;;4858651;29;20049;-75
2022/04/16 15:53:53;;;;;;;3.50;2.10;;;22.10;41.30;;;;;;4858323;29;20126;-80
2022/04/16 15:56:20;;;;;;;3.85;2.17;;;21.60;41.80;;;;;;4859153;29;20061;-77
2022/04/16 15:58:49;;;;;;;2.85;1.70;;;20.90;41.50;;;;;;4857884;29;20148;-80
2022/04/16 16:01:17;;;;;;;3.17;1.67;;;21.20;42.70;;;;;;4859327;29;20080;-78
2022/04/16 16:03:45;;;;;;;3.65;2.00;;;22.40;41.50;;;;;;4859722;29;20397;-78
2022/04/16 16:06:12;;;;;;;3.60;1.60;;;21.50;42.00;;;;;;4861172;29;20056;-78
2022/04/16 16:08:39;;;;;;;3.00;1.55;;;22.00;39.50;;;;;;4865699;29;20144;-78
2022/04/16 16:11:06;;;;;;;2.90;1.40;;;21.70;41.80;;;;;;4857886;29;20165;-76
2022/04/16 16:13:33;;;;;;;2.97;1.50;;;21.30;38.60;;;;;;4842053;29;20068;-78
2022/04/16 16:16:02;;;;;;;3.17;1.63;;;21.50;40.00;;;;;;4844789;29;20543;-82
2022/04/16 16:18:29;;;;;;;3.30;1.67;;;21.10;39.30;;;;;;4858893;29;20144;-80
2022/04/16 16:20:56;;;;;;;3.38;1.50;;;20.80;39.20;;;;;;4860752;29;20704;-78
2022/04/16 16:23:23;;;;;;;3.40;1.83;;;20.30;39.80;;;;;;4858580;29;20059;-81
2022/04/16 16:25:50;;;;;;;4.07;1.60;;;20.20;40.40;;;;;;4861063;29;20058;-79
2022/04/16 16:28:18;;;;;;;3.75;1.95;;;19.80;41.30;;;;;;4860407;29;20053;-79
2022/04/16 16:30:45;;;;;;;2.92;1.60;;;20.30;41.10;;;;;;4860703;29;20136;-78
2022/04/16 16:33:14;;;;;;;2.90;1.50;;;20.00;40.40;;;;;;4846278;29;20064;-80
2022/04/16 16:35:42;;;;;;;3.40;1.70;;;20.10;40.60;;;;;;4852206;29;20060;-79
2022/04/16 16:38:09;;;;;;;4.00;1.73;;;20.40;40.50;;;;;;4863102;29;20069;-80
2022/04/16 16:40:36;;;;;;;3.47;1.85;;;20.60;39.10;;;;;;4862720;29;20057;-78
2022/04/16 16:43:03;;;;;;;5.25;2.00;;;21.20;38.40;;;;;;4860488;29;20744;-78
2022/04/16 16:45:30;;;;;;;3.58;1.88;;;21.20;38.80;;;;;;4862038;29;20480;-80
2022/04/16 16:47:57;;;;;;;4.22;1.88;;;20.30;39.30;;;;;;4860309;29;20060;-79
2022/04/16 16:50:26;;;;;;;3.97;2.10;;;20.10;38.30;;;;;;4861808;29;20419;-79
2022/04/16 16:52:53;;;;;;;5.07;1.85;;;20.10;39.80;;;;;;4862449;29;20083;-79
2022/04/16 16:55:23;;;;;;;3.85;1.80;;;20.50;38.50;;;;;;4860006;29;20407;-79
2022/04/16 16:57:51;;;;;;;5.10;1.92;;;19.90;39.70;;;;;;4860685;29;20057;-77
2022/04/16 17:00:19;;;;;;;5.00;1.63;;;20.50;41.50;;;;;;4860859;29;20053;-77
2022/04/16 17:05:33;;;;;;;3.85;2.00;;;20.50;38.20;;;;;;4861284;29;20073;-80
2022/04/16 17:08:00;;;;;;;3.83;2.00;;;19.00;37.70;;;;;;4859554;29;20140;-80
2022/04/16 17:10:27;;;;;;;3.67;1.80;;;18.60;38.80;;;;;;4860941;29;20117;-79
2022/04/16 17:12:55;;;;;;;2.90;1.60;;;18.60;38.70;;;;;;4861064;29;20170;-77
2022/04/16 17:20:53;;;;;;;3.63;1.70;;;19.00;39.10;;;;;;4860993;29;20149;-78
2022/04/16 17:23:21;;;;;;;3.38;1.70;;;18.40;38.10;;;;;;4862100;29;20041;-79
2022/04/16 17:25:51;;;;;;;3.70;1.60;;;17.90;38.40;;;;;;4867887;29;20136;-83
2022/04/16 17:28:18;;;;;;;2.60;1.48;;;17.60;39.10;;;;;;4865186;29;20514;-75
2022/04/16 17:30:45;;;;;;;2.92;1.50;;;18.30;39.50;;;;;;4866130;29;20045;-81
2022/04/16 17:33:13;;;;;;;3.60;1.70;;;18.30;38.50;;;;;;4864574;29;20064;-80
2022/04/16 17:35:41;;;;;;;2.75;1.50;;;18.40;38.40;;;;;;4861625;29;20144;-78
2022/04/16 17:38:09;;;;;;;3.35;1.60;;;17.20;38.60;;;;;;4858653;29;20056;-81
2022/04/16 17:40:36;;;;;;;2.72;1.40;;;17.20;40.00;;;;;;4862539;29;20515;-80
2022/04/16 17:43:04;;;;;;;3.40;1.60;;;17.20;38.90;;;;;;4863096;29;20062;-81
2022/04/16 17:45:31;;;;;;;3.38;1.65;;;17.10;39.50;;;;;;4860499;29;20075;-82
2022/04/16 17:47:58;;;;;;;3.38;1.50;;;16.60;39.80;;;;;;4845307;29;20061;-78
2022/04/16 17:50:26;;;;;;;2.58;1.27;;;16.60;39.90;;;;;;4860926;29;20057;-78
2022/04/16 17:52:53;;;;;;;3.60;1.63;;;16.30;39.80;;;;;;4860633;29;20058;-87
2022/04/16 17:55:22;;;;;;;3.40;1.60;;;16.40;40.10;;;;;;4842927;29;20054;-81
2022/04/16 17:57:49;;;;;;;4.47;1.90;;;15.80;40.10;;;;;;4859742;29;20502;-81
2022/04/16 18:00:18;;;;;;;3.75;1.70;;;15.40;40.20;;;;;;4857235;29;20141;-80
2022/04/16 18:02:46;;;;;;;2.75;1.30;;;15.30;40.20;;;;;;4860637;29;20053;-82
2022/04/16 18:05:14;;;;;;;4.32;1.55;;;15.00;40.10;;;;;;4856013;29;20073;-82
2022/04/16 18:07:42;;;;;;;2.42;1.20;;;15.20;40.50;;;;;;4851428;29;20085;-84
2022/04/16 18:10:12;;;;;;;2.60;1.30;;;15.20;40.60;;;;;;4843889;29;20054;-82
2022/04/16 18:12:40;;;;;;;3.70;1.55;;;15.00;41.60;;;;;;4839519;29;20061;-81
2022/04/16 18:15:09;;;;;;;4.00;1.92;;;14.90;41.40;;;;;;4842413;29;20061;-83
2022/04/16 18:17:39;;;;;;;3.40;1.77;;;14.50;42.20;;;;;;4840027;29;20606;-83
2022/04/16 18:20:09;;;;;;;3.47;1.48;;;14.60;42.40;;;;;;4842176;29;20921;-84
2022/04/16 18:22:38;;;;;;;2.70;1.30;;;14.60;43.60;;;;;;4840747;29;20057;-82
2022/04/16 18:25:07;;;;;;;3.47;1.50;;;15.00;43.80;;;;;;4839995;29;20054;-84
2022/04/16 18:27:35;;;;;;;3.00;1.33;;;14.90;43.20;;;;;;4841864;29;20098;-84